createdAt,value
2022-10-26T00:01:11.904Z,4.40
2022-10-26T00:03:58.060Z,4.00
2022-10-26T00:06:42.025Z,4.53
2022-10-26T00:09:26.256Z,4.50
2022-10-26T00:12:10.576Z,4.40
2022-10-26T00:14:54.723Z,5.30
2022-10-26T00:17:40.136Z,4.93
2022-10-26T00:20:24.357Z,4.80
2022-10-26T00:23:08.324Z,4.63
2022-10-26T00:25:56.800Z,4.77
2022-10-26T00:28:40.743Z,4.33
2022-10-26T00:31:25.516Z,4.87
2022-10-26T00:34:12.020Z,4.30
2022-10-26T00:36:56.073Z,4.40
2022-10-26T00:39:40.163Z,4.70
2022-10-26T00:42:24.654Z,4.03
2022-10-26T00:45:20.680Z,5.93
2022-10-26T00:48:09.134Z,4.63
2022-10-26T00:50:55.900Z,4.53
2022-10-26T00:53:40.502Z,4.87
2022-10-26T00:56:25.347Z,5.40
2022-10-26T00:59:12.527Z,5.40
2022-10-26T01:01:56.473Z,5.40
2022-10-26T01:04:40.673Z,5.30
2022-10-26T01:07:27.329Z,4.13
2022-10-26T01:10:11.640Z,5.20
2022-10-26T01:12:58.165Z,4.70
2022-10-26T01:15:52.722Z,5.83
2022-10-26T01:18:45.992Z,4.93
2022-10-26T01:21:45.222Z,5.27
2022-10-26T01:24:54.174Z,5.10
2022-10-26T01:27:39.773Z,5.80
2022-10-26T01:30:40.183Z,5.03
2022-10-26T01:33:32.240Z,5.30
2022-10-26T01:36:23.578Z,5.67
2022-10-26T01:39:16.041Z,5.33
2022-10-26T01:42:02.105Z,5.67
2022-10-26T01:44:50.742Z,6.00
2022-10-26T01:47:38.554Z,6.20
2022-10-26T01:50:23.477Z,6.60
2022-10-26T01:53:07.245Z,6.77
2022-10-26T01:55:52.405Z,7.30
2022-10-26T01:59:06.099Z,7.10
2022-10-26T02:02:12.867Z,7.23
2022-10-26T02:05:13.756Z,7.23
2022-10-26T02:08:08.531Z,8.23
2022-10-26T02:11:03.122Z,7.80
2022-10-26T02:13:54.151Z,7.87
2022-10-26T02:16:46.337Z,9.47
2022-10-26T02:19:37.271Z,7.90
2022-10-26T02:22:28.367Z,7.87
2022-10-26T02:25:18.447Z,8.93
2022-10-26T02:28:07.761Z,8.17
2022-10-26T02:30:56.771Z,7.77
2022-10-26T02:33:43.083Z,8.57
2022-10-26T02:36:30.493Z,7.53
2022-10-26T02:39:18.103Z,7.70
2022-10-26T02:42:04.373Z,7.77
2022-10-26T02:44:52.549Z,8.40
2022-10-26T02:47:36.739Z,7.63
2022-10-26T02:50:23.204Z,8.03
2022-10-26T02:53:18.834Z,8.57
2022-10-26T02:56:09.598Z,8.63
2022-10-26T02:58:59.185Z,8.23
2022-10-26T03:01:44.049Z,8.43
2022-10-26T03:04:32.232Z,8.23
2022-10-26T03:07:22.373Z,8.37
2022-10-26T03:10:07.078Z,8.83
2022-10-26T03:12:52.622Z,7.83
2022-10-26T03:15:36.915Z,7.53
2022-10-26T03:18:20.783Z,8.33
2022-10-26T03:21:04.980Z,8.47
2022-10-26T03:23:50.678Z,8.03
2022-10-26T03:26:34.805Z,8.27
2022-10-26T03:29:20.282Z,8.17
2022-10-26T03:32:04.336Z,8.63
2022-10-26T03:34:48.549Z,8.47
2022-10-26T03:37:32.465Z,9.13
2022-10-26T03:40:16.840Z,8.03
2022-10-26T03:43:00.792Z,8.10
2022-10-26T03:45:46.363Z,8.47
2022-10-26T03:48:30.407Z,8.40
2022-10-26T03:51:14.397Z,8.53
2022-10-26T03:53:58.484Z,8.97
2022-10-26T03:56:42.396Z,9.07
2022-10-26T03:59:26.524Z,7.67
2022-10-26T04:02:12.199Z,8.80
2022-10-26T04:04:56.268Z,7.97
2022-10-26T04:07:40.239Z,8.03
2022-10-26T04:10:24.876Z,9.03
2022-10-26T04:13:10.239Z,8.77
2022-10-26T04:15:54.257Z,8.40
2022-10-26T04:18:39.606Z,8.70
2022-10-26T04:21:23.561Z,8.60
2022-10-26T04:24:10.634Z,8.33
2022-10-26T04:26:54.615Z,8.97
2022-10-26T04:29:38.507Z,8.70
2022-10-26T04:32:22.510Z,7.97
2022-10-26T04:35:12.043Z,8.37
2022-10-26T04:38:00.297Z,8.67
2022-10-26T04:40:44.374Z,8.20
2022-10-26T04:43:28.390Z,8.60
2022-10-26T04:46:16.667Z,8.27
2022-10-26T04:49:00.947Z,7.20
2022-10-26T04:51:46.556Z,7.60
2022-10-26T04:54:31.800Z,7.90
2022-10-26T04:57:15.869Z,7.27
2022-10-26T04:59:59.921Z,7.50
2022-10-26T05:02:44.051Z,8.03
2022-10-26T05:05:28.011Z,7.60
2022-10-26T05:08:13.466Z,8.03
2022-10-26T05:10:57.470Z,8.13
2022-10-26T05:13:41.559Z,7.60
2022-10-26T05:16:25.782Z,6.97
2022-10-26T05:19:09.736Z,7.77
2022-10-26T05:21:53.937Z,6.33
2022-10-26T05:24:39.445Z,7.20
2022-10-26T05:27:23.456Z,6.97
2022-10-26T05:30:08.481Z,6.90
2022-10-26T05:32:55.464Z,7.70
2022-10-26T05:35:39.462Z,8.87
2022-10-26T05:38:23.468Z,8.90
2022-10-26T05:41:08.836Z,8.47
2022-10-26T05:43:52.874Z,8.73
2022-10-26T05:46:36.845Z,8.53
2022-10-26T05:49:20.898Z,8.83
2022-10-26T05:52:05.100Z,9.07
2022-10-26T05:54:49.352Z,8.37
2022-10-26T05:57:35.746Z,8.80
2022-10-26T06:00:22.018Z,8.33
2022-10-26T06:03:16.073Z,9.13
2022-10-26T06:06:03.980Z,10.40
2022-10-26T06:08:51.206Z,8.47
2022-10-26T06:11:35.782Z,8.67
2022-10-26T06:14:21.662Z,8.30
2022-10-26T06:17:19.474Z,8.97
2022-10-26T06:20:15.682Z,7.77
2022-10-26T06:23:22.279Z,8.53
2022-10-26T06:26:16.355Z,8.93
2022-10-26T06:29:09.151Z,8.47
2022-10-26T06:31:54.285Z,8.27
2022-10-26T06:34:44.227Z,8.30
2022-10-26T06:37:30.650Z,7.87
2022-10-26T06:40:17.414Z,7.93
2022-10-26T06:43:01.603Z,8.37
2022-10-26T06:45:49.747Z,7.90
2022-10-26T06:48:50.985Z,8.00
2022-10-26T06:51:43.167Z,8.07
2022-10-26T06:54:38.972Z,7.67
2022-10-26T06:57:24.865Z,8.23
2022-10-26T07:00:16.285Z,8.02
2022-10-26T07:03:00.225Z,8.07
2022-10-26T07:05:46.553Z,8.25
2022-10-26T07:08:33.092Z,7.88
2022-10-26T07:11:16.806Z,7.25
2022-10-26T07:14:00.477Z,7.88
2022-10-26T07:16:44.274Z,6.88
2022-10-26T07:19:28.003Z,8.65
2022-10-26T07:22:13.478Z,7.93
2022-10-26T07:24:59.292Z,8.43
2022-10-26T07:27:46.924Z,9.07
2022-10-26T07:30:31.769Z,8.02
2022-10-26T07:33:15.901Z,8.25
2022-10-26T07:36:00.401Z,8.05
2022-10-26T07:38:45.492Z,7.40
2022-10-26T07:41:29.271Z,8.00
2022-10-26T07:44:12.999Z,8.40
2022-10-26T07:46:57.162Z,9.98
2022-10-26T07:49:40.867Z,8.85
2022-10-26T07:52:24.585Z,9.43
2022-10-26T07:55:11.354Z,8.77
2022-10-26T07:57:56.753Z,9.82
2022-10-26T08:00:40.803Z,8.25
2022-10-26T08:03:24.790Z,6.88
2022-10-26T08:06:10.579Z,7.00
2022-10-26T08:08:54.486Z,6.50
2022-10-26T08:11:39.654Z,6.25
2022-10-26T08:14:23.484Z,5.63
2022-10-26T08:17:07.231Z,5.75
2022-10-26T08:19:50.974Z,5.88
2022-10-26T08:22:34.696Z,5.50
2022-10-26T08:25:21.249Z,4.93
2022-10-26T08:28:06.914Z,4.32
2022-10-26T08:30:50.653Z,4.80
2022-10-26T08:33:34.791Z,3.72
2022-10-26T08:36:21.649Z,3.13
2022-10-26T08:39:05.522Z,3.55
2022-10-26T08:41:53.518Z,2.95
2022-10-26T08:44:43.682Z,4.00
2022-10-26T08:47:31.670Z,3.22
2022-10-26T08:50:25.456Z,3.67
2022-10-26T08:53:15.511Z,4.60
2022-10-26T08:56:05.203Z,3.50
2022-10-26T08:58:53.498Z,3.25
2022-10-26T09:01:38.646Z,3.42
2022-10-26T09:04:27.366Z,3.70
2022-10-26T09:07:19.989Z,3.00
2022-10-26T09:10:13.177Z,3.20
2022-10-26T09:13:04.194Z,4.05
2022-10-26T09:16:01.195Z,2.90
2022-10-26T09:18:57.722Z,3.05
2022-10-26T09:21:51.873Z,2.72
2022-10-26T09:24:40.636Z,2.92
2022-10-26T09:27:28.732Z,3.22
2022-10-26T09:30:16.704Z,3.03
2022-10-26T09:33:04.088Z,3.08
2022-10-26T09:35:52.912Z,3.20
2022-10-26T09:38:41.991Z,3.33
2022-10-26T09:41:32.010Z,3.17
2022-10-26T09:44:26.229Z,3.38
2022-10-26T09:47:18.205Z,2.90
2022-10-26T09:50:16.590Z,3.20
2022-10-26T09:53:01.683Z,3.17
2022-10-26T09:55:47.971Z,3.53
2022-10-26T09:58:35.894Z,3.00
2022-10-26T10:01:35.489Z,3.03
2022-10-26T10:04:24.199Z,3.20
2022-10-26T10:07:15.232Z,3.40
2022-10-26T10:10:16.657Z,3.50
2022-10-26T10:13:15.500Z,3.20
2022-10-26T10:16:07.556Z,2.70
2022-10-26T10:18:55.960Z,2.85
2022-10-26T10:21:43.851Z,2.50
2022-10-26T10:24:30.555Z,3.00
2022-10-26T10:27:19.983Z,2.60
2022-10-26T10:30:29.695Z,2.67
2022-10-26T10:33:13.935Z,2.85
2022-10-26T10:35:58.878Z,3.17
2022-10-26T10:38:45.285Z,2.67
2022-10-26T10:41:32.046Z,2.58
2022-10-26T10:44:24.091Z,2.92
2022-10-26T10:47:08.664Z,3.05
2022-10-26T10:49:55.815Z,2.90
2022-10-26T10:52:39.562Z,2.83
2022-10-26T10:55:24.022Z,3.00
2022-10-26T10:58:20.389Z,2.90
2022-10-26T11:01:08.067Z,2.67
2022-10-26T11:04:09.939Z,2.83
2022-10-26T11:06:58.589Z,2.78
2022-10-26T11:09:46.283Z,2.33
2022-10-26T11:15:26.066Z,2.60
2022-10-26T11:18:16.670Z,2.50
2022-10-26T11:21:05.911Z,2.47
2022-10-26T11:23:55.674Z,2.75
2022-10-26T11:26:46.206Z,2.70
2022-10-26T11:29:39.857Z,2.88
2022-10-26T11:32:30.360Z,2.60
2022-10-26T11:35:19.795Z,3.05
2022-10-26T11:38:11.232Z,3.63
2022-10-26T11:41:02.037Z,3.03
2022-10-26T11:43:48.436Z,3.08
2022-10-26T11:46:36.778Z,2.80
2022-10-26T11:49:27.806Z,2.67
2022-10-26T11:52:18.826Z,2.30
2022-10-26T11:55:04.913Z,2.50
2022-10-26T11:57:49.635Z,2.90
2022-10-26T12:00:35.623Z,2.40
2022-10-26T12:03:24.707Z,2.40
2022-10-26T12:06:08.618Z,2.60
2022-10-26T12:09:00.882Z,2.50
2022-10-26T12:11:49.470Z,2.70
2022-10-26T12:14:40.770Z,2.40
2022-10-26T12:17:30.834Z,2.72
2022-10-26T12:20:36.452Z,2.30
2022-10-26T12:23:33.810Z,2.53
2022-10-26T12:26:56.030Z,2.65
2022-10-26T12:29:45.889Z,2.65
2022-10-26T12:32:51.806Z,2.67
2022-10-26T12:35:41.411Z,2.65
2022-10-26T12:39:06.380Z,2.88
2022-10-26T12:41:59.007Z,2.83
2022-10-26T12:45:03.257Z,2.65
2022-10-26T12:48:34.783Z,2.50
2022-10-26T12:51:44.048Z,3.03
2022-10-26T12:54:40.101Z,2.13
2022-10-26T12:57:32.104Z,2.60
2022-10-26T13:00:18.442Z,2.72
2022-10-26T13:03:13.960Z,2.80
2022-10-26T13:06:22.847Z,2.80
2022-10-26T13:09:17.627Z,3.15
2022-10-26T13:12:05.602Z,2.78
2022-10-26T13:15:01.526Z,3.38
2022-10-26T13:17:56.462Z,3.00
2022-10-26T13:20:55.174Z,2.80
2022-10-26T13:23:41.497Z,2.97
2022-10-26T13:26:27.149Z,2.55
2022-10-26T13:29:12.323Z,2.75
2022-10-26T13:31:59.017Z,3.00
2022-10-26T13:34:45.475Z,2.80
2022-10-26T13:37:32.610Z,3.20
2022-10-26T13:40:19.651Z,2.85
2022-10-26T13:43:05.545Z,2.88
2022-10-26T13:45:55.311Z,2.67
2022-10-26T13:48:42.916Z,3.63
2022-10-26T13:51:38.588Z,3.58
2022-10-26T13:54:29.335Z,3.00
2022-10-26T13:57:19.325Z,3.00
2022-10-26T14:00:09.780Z,2.55
2022-10-26T14:02:55.668Z,2.97
2022-10-26T14:05:45.880Z,2.92
2022-10-26T14:08:29.902Z,3.80
2022-10-26T14:11:16.862Z,5.00
2022-10-26T14:14:01.809Z,5.47
2022-10-26T14:16:47.605Z,5.95
2022-10-26T14:19:35.135Z,5.07
2022-10-26T14:22:24.954Z,5.50
2022-10-26T14:25:26.724Z,5.90
2022-10-26T14:28:24.648Z,7.10
2022-10-26T14:31:18.158Z,7.63
2022-10-26T14:34:06.352Z,6.47
2022-10-26T14:36:53.695Z,6.25
2022-10-26T14:39:43.929Z,6.45
2022-10-26T14:42:31.715Z,5.82
2022-10-26T14:45:47.515Z,5.50
2022-10-26T14:48:35.262Z,5.72
2022-10-26T14:51:21.275Z,6.35
2022-10-26T14:54:05.650Z,5.93
2022-10-26T14:56:51.501Z,6.85
2022-10-26T14:59:35.559Z,6.80
2022-10-26T15:02:22.525Z,9.00
2022-10-26T15:05:20.477Z,7.97
2022-10-26T15:08:04.393Z,7.57
2022-10-26T15:10:49.485Z,6.85
2022-10-26T15:13:36.287Z,7.78
2022-10-26T15:16:21.896Z,7.60
2022-10-26T15:19:10.921Z,7.72
2022-10-26T15:21:55.431Z,7.60
2022-10-26T15:24:40.440Z,8.25
2022-10-26T15:27:25.041Z,8.05
2022-10-26T15:30:28.161Z,11.05
2022-10-26T15:33:22.244Z,9.10
2022-10-26T15:36:17.151Z,11.63
2022-10-26T15:39:01.189Z,11.32
2022-10-26T15:41:48.034Z,9.13
2022-10-26T15:44:31.747Z,10.15
2022-10-26T15:47:20.727Z,8.68
2022-10-26T15:50:04.832Z,8.05
2022-10-26T15:52:49.643Z,8.13
2022-10-26T15:55:33.469Z,9.50
2022-10-26T15:58:17.356Z,8.52
2022-10-26T16:01:01.114Z,7.47
2022-10-26T16:03:46.379Z,7.25
2022-10-26T16:06:32.006Z,7.47
2022-10-26T16:09:17.859Z,7.70
2022-10-26T16:12:01.664Z,7.35
2022-10-26T16:15:04.324Z,8.50
2022-10-26T16:17:49.714Z,8.15
2022-10-26T16:20:35.386Z,8.90
2022-10-26T16:23:19.080Z,8.05
2022-10-26T16:26:05.548Z,8.32
2022-10-26T16:28:49.637Z,8.70
2022-10-26T16:31:33.361Z,7.85
2022-10-26T16:34:17.434Z,8.73
2022-10-26T16:37:02.761Z,9.33
2022-10-26T16:39:46.657Z,8.57
2022-10-26T16:42:32.417Z,8.63
2022-10-26T16:45:17.109Z,8.37
2022-10-26T16:48:05.816Z,7.20
2022-10-26T16:50:49.768Z,6.83
2022-10-26T16:53:35.285Z,7.23
2022-10-26T16:56:20.973Z,8.47
2022-10-26T16:59:05.005Z,8.33
2022-10-26T17:01:48.993Z,7.90
2022-10-26T17:04:33.068Z,7.73
2022-10-26T17:07:17.042Z,7.07
2022-10-26T17:10:02.408Z,7.73
2022-10-26T17:12:47.544Z,7.70
2022-10-26T17:15:31.674Z,7.90
2022-10-26T17:18:15.776Z,8.27
2022-10-26T17:20:59.962Z,8.50
2022-10-26T17:23:44.033Z,9.07
2022-10-26T17:26:29.781Z,7.80
2022-10-26T17:29:14.344Z,8.13
2022-10-26T17:31:58.378Z,8.17
2022-10-26T17:34:42.366Z,6.83
2022-10-26T17:37:26.469Z,7.60
2022-10-26T17:40:11.618Z,6.73
2022-10-26T17:42:57.770Z,7.70
2022-10-26T17:45:41.941Z,6.93
2022-10-26T17:48:26.146Z,7.00
2022-10-26T17:51:13.315Z,7.33
2022-10-26T17:53:59.271Z,6.50
2022-10-26T17:56:43.297Z,7.00
2022-10-26T17:59:29.062Z,6.27
2022-10-26T18:02:13.311Z,6.97
2022-10-26T18:04:57.306Z,7.13
2022-10-26T18:07:41.511Z,10.67
2022-10-26T18:10:37.563Z,12.37
2022-10-26T18:13:22.309Z,9.03
2022-10-26T18:16:10.735Z,7.50
2022-10-26T18:19:00.684Z,7.80
2022-10-26T18:21:46.034Z,8.10
2022-10-26T18:24:29.918Z,8.60
2022-10-26T18:27:13.906Z,7.57
2022-10-26T18:29:57.723Z,7.20
2022-10-26T18:32:43.041Z,8.17
2022-10-26T18:35:26.916Z,7.97
2022-10-26T18:38:10.958Z,8.47
2022-10-26T18:40:55.251Z,9.30
2022-10-26T18:43:41.759Z,9.37
2022-10-26T18:46:28.317Z,10.20
2022-10-26T18:49:14.368Z,9.43
2022-10-26T18:51:58.532Z,11.67
2022-10-26T18:54:42.387Z,9.60
2022-10-26T18:57:28.665Z,9.60
2022-10-26T19:00:13.993Z,9.67
2022-10-26T19:02:58.391Z,8.57
2022-10-26T19:05:43.927Z,8.53
2022-10-26T19:08:28.119Z,8.20
2022-10-26T19:11:13.535Z,8.73
2022-10-26T19:13:57.739Z,8.03
2022-10-26T19:16:46.796Z,8.43
2022-10-26T19:19:31.370Z,9.70
2022-10-26T19:22:16.730Z,10.10
2022-10-26T19:25:00.853Z,8.70
2022-10-26T19:27:47.147Z,8.00
2022-10-26T19:30:31.168Z,7.17
2022-10-26T19:33:15.005Z,8.13
2022-10-26T19:36:02.262Z,7.50
2022-10-26T19:38:47.557Z,8.00
2022-10-26T19:41:31.545Z,7.43
2022-10-26T19:44:17.290Z,7.60
2022-10-26T19:47:02.644Z,7.43
2022-10-26T19:49:46.484Z,10.17
2022-10-26T19:52:30.309Z,8.57
2022-10-26T19:55:15.581Z,8.60
2022-10-26T19:57:59.453Z,7.37
2022-10-26T20:00:44.103Z,7.53
2022-10-26T20:03:29.109Z,7.27
2022-10-26T20:06:14.149Z,7.97
2022-10-26T20:08:57.909Z,7.60
2022-10-26T20:11:43.496Z,7.20
2022-10-26T20:14:27.184Z,7.33
2022-10-26T20:17:10.982Z,8.17
2022-10-26T20:19:55.920Z,7.43
2022-10-26T20:22:39.655Z,6.67
2022-10-26T20:25:23.440Z,6.80
2022-10-26T20:28:08.568Z,7.13
2022-10-26T20:30:52.223Z,7.47
2022-10-26T20:33:35.988Z,7.50
2022-10-26T20:36:19.916Z,7.33
2022-10-26T20:39:05.934Z,7.73
2022-10-26T20:41:50.311Z,6.30
2022-10-26T20:44:42.905Z,7.70
2022-10-26T20:47:27.291Z,6.90
2022-10-26T20:50:13.403Z,6.50
2022-10-26T20:53:00.464Z,6.37
2022-10-26T20:55:49.909Z,7.13
2022-10-26T20:58:41.600Z,7.10
2022-10-26T21:01:29.519Z,6.67
2022-10-26T21:04:13.596Z,6.40
2022-10-26T21:06:57.593Z,6.47
2022-10-26T21:09:41.611Z,6.43
2022-10-26T21:12:25.597Z,6.40
2022-10-26T21:15:10.650Z,6.80
2022-10-26T21:17:56.060Z,6.43
2022-10-26T21:20:40.004Z,6.13
2022-10-26T21:23:23.931Z,6.90
2022-10-26T21:26:08.652Z,6.43
2022-10-26T21:28:52.630Z,5.60
2022-10-26T21:31:36.511Z,6.37
2022-10-26T21:34:21.922Z,6.40
2022-10-26T21:37:05.901Z,6.00
2022-10-26T21:39:49.834Z,6.20
2022-10-26T21:42:33.812Z,5.37
2022-10-26T21:45:17.850Z,5.80
2022-10-26T21:48:01.843Z,5.40
2022-10-26T21:50:47.204Z,5.47
2022-10-26T21:53:31.324Z,5.50
2022-10-26T21:56:18.553Z,5.57
2022-10-26T21:59:02.597Z,5.33
2022-10-26T22:01:46.772Z,5.43
2022-10-26T22:04:30.754Z,5.33
2022-10-26T22:07:17.178Z,4.77
2022-10-26T22:10:10.553Z,5.43
2022-10-26T22:12:54.865Z,5.53
2022-10-26T22:15:38.866Z,5.10
2022-10-26T22:18:22.927Z,5.43
2022-10-26T22:21:08.358Z,5.97
2022-10-26T22:23:54.229Z,5.80
2022-10-26T22:26:38.864Z,6.20
2022-10-26T22:29:22.787Z,5.57
2022-10-26T22:32:07.034Z,5.93
2022-10-26T22:35:00.315Z,6.67
2022-10-26T22:37:55.933Z,6.00
2022-10-26T22:40:41.281Z,5.50
2022-10-26T22:43:25.484Z,6.20
2022-10-26T22:46:12.871Z,6.10
2022-10-26T22:48:58.119Z,5.27
2022-10-26T22:51:42.141Z,5.70
2022-10-26T22:54:25.961Z,5.43
2022-10-26T22:57:11.345Z,5.87
2022-10-26T22:59:55.338Z,5.93
2022-10-26T23:02:39.394Z,5.93
2022-10-26T23:05:23.290Z,5.13
2022-10-26T23:08:07.268Z,6.03
2022-10-26T23:10:51.168Z,5.60
2022-10-26T23:13:36.647Z,5.73
2022-10-26T23:16:20.646Z,6.00
2022-10-26T23:19:04.580Z,5.50
2022-10-26T23:21:48.507Z,5.10
2022-10-26T23:24:32.460Z,6.03
2022-10-26T23:27:16.439Z,4.50
2022-10-26T23:30:01.847Z,4.87
2022-10-26T23:32:47.203Z,4.80
2022-10-26T23:35:31.379Z,5.23
2022-10-26T23:38:15.294Z,4.97
2022-10-26T23:41:00.618Z,4.07
2022-10-26T23:43:44.594Z,5.00
2022-10-26T23:46:29.961Z,4.67
2022-10-26T23:49:13.972Z,4.43
2022-10-26T23:51:57.907Z,4.00
2022-10-26T23:54:41.907Z,4.27
2022-10-26T23:57:25.939Z,3.80
